Time;durP1;ratioP1;P1;durP2;ratioP2;P2;SDS_P1;SDS_P2;PMS_P1;PMS_P2;Temp;Humidity;BMP_temperature;BMP_pressure;BME280_temperature;BME280_humidity;BME280_pressure;Samples;Min_cycle;Max_cycle;Signal;HPM_P1;HPM_P2
2023/01/18 00:00:07;;;;;;;20.95;9.90;;;;;;;;;;5028715;28;20029;-72
2023/01/18 00:02:32;;;;;;;24.25;11.45;;;;;;;;;;5023548;28;20041;-72
2023/01/18 00:04:58;;;;;;;20.10;9.00;;;;;;;;;;5018693;28;20393;-72
2023/01/18 00:07:23;;;;;;;19.75;7.95;;;;;;;;;;5019575;28;20057;-73
2023/01/18 00:09:48;;;;;;;17.00;8.07;;;;;;;;;;5013592;28;20046;-71
2023/01/18 00:12:14;;;;;;;15.20;8.93;;;;;;;;;;5017850;28;20036;-72
2023/01/18 00:14:39;;;;;;;20.25;9.35;;;;;;;;;;5013471;28;20433;-72
2023/01/18 00:17:04;;;;;;;15.45;7.72;;;;;;;;;;5017912;28;20030;-73
2023/01/18 00:19:32;;;;;;;20.13;8.13;;;;;;;;;;5028610;28;20034;-72
2023/01/18 00:21:58;;;;;;;21.25;9.52;;;;;;;;;;5028952;28;20025;-72
2023/01/18 00:24:26;;;;;;;19.33;8.90;;;;;;;;;;5023950;28;20374;-72
2023/01/18 00:26:52;;;;;;;19.70;8.20;;;;;;;;;;5013830;28;20445;-75
2023/01/18 00:29:18;;;;;;;14.75;7.82;;;;;;;;;;5016009;28;20065;-72
2023/01/18 00:31:43;;;;;;;14.50;7.47;;;;;;;;;;5022649;28;20084;-72
2023/01/18 00:34:08;;;;;;;21.50;8.52;;;;;;;;;;5012566;28;20046;-75
2023/01/18 00:36:34;;;;;;;16.52;9.50;;;;;;;;;;5027121;28;20064;-73
2023/01/18 00:38:59;;;;;;;17.42;8.15;;;;;;;;;;5013966;28;20586;-71
2023/01/18 00:41:25;;;;;;;13.63;8.35;;;;;;;;;;5024115;28;20664;-72
2023/01/18 00:43:51;;;;;;;17.80;6.93;;;;;;;;;;5021171;28;20033;-72
2023/01/18 00:46:18;;;;;;;18.58;7.55;;;;;;;;;;5025634;28;20048;-72
2023/01/18 00:48:44;;;;;;;14.90;7.00;;;;;;;;;;5022126;28;20045;-71
2023/01/18 00:51:12;;;;;;;14.93;6.20;;;;;;;;;;5029370;28;20041;-72
2023/01/18 00:53:37;;;;;;;15.88;7.00;;;;;;;;;;5020197;28;20057;-72
2023/01/18 00:56:07;;;;;;;12.32;6.22;;;;;;;;;;5018130;28;20038;-71
2023/01/18 00:58:33;;;;;;;12.52;5.72;;;;;;;;;;5018158;28;20547;-72
2023/01/18 01:00:59;;;;;;;14.90;6.40;;;;;;;;;;5017853;28;20061;-72
2023/01/18 01:03:24;;;;;;;14.55;6.03;;;;;;;;;;5016283;28;20042;-72
2023/01/18 01:08:34;;;;;;;11.32;6.13;;;;;;;;;;5022875;28;20451;-72
2023/01/18 01:11:08;;;;;;;9.45;4.70;;;;;;;;;;5032516;28;20120;-72
2023/01/18 01:27:13;;;;;;;11.02;5.10;;;;;;;;;;5018596;28;20104;-72
2023/01/18 01:29:38;;;;;;;7.85;4.30;;;;;;;;;;5019726;28;20038;-72
2023/01/18 01:32:04;;;;;;;12.77;4.68;;;;;;;;;;5021234;28;20088;-72
2023/01/18 01:34:30;;;;;;;15.25;4.93;;;;;;;;;;5019790;28;20525;-72
2023/01/18 01:36:56;;;;;;;11.25;5.18;;;;;;;;;;5020421;28;20498;-72
2023/01/18 01:39:22;;;;;;;8.45;4.20;;;;;;;;;;5027379;28;20045;-72
2023/01/18 01:41:47;;;;;;;9.88;5.07;;;;;;;;;;5020640;28;20049;-73
2023/01/18 01:44:16;;;;;;;12.88;4.78;;;;;;;;;;5029188;28;20065;-73
2023/01/18 01:46:54;;;;;;;5.45;3.33;;;;;;;;;;5022574;28;20038;-73
2023/01/18 01:49:28;;;;;;;11.45;5.28;;;;;;;;;;5030261;28;20041;-72
2023/01/18 01:52:07;;;;;;;10.93;4.88;;;;;;;;;;5012223;28;20029;-72
2023/01/18 01:54:37;;;;;;;10.00;3.40;;;;;;;;;;5010717;28;20405;-72
2023/01/18 01:57:09;;;;;;;6.25;3.17;;;;;;;;;;5028801;28;20041;-72
2023/01/18 01:59:38;;;;;;;9.95;3.72;;;;;;;;;;5021929;28;20091;-72
2023/01/18 02:02:04;;;;;;;9.55;3.67;;;;;;;;;;5019280;28;20112;-72
2023/01/18 02:04:30;;;;;;;5.60;2.70;;;;;;;;;;5022194;28;20030;-72
2023/01/18 02:06:55;;;;;;;11.60;3.10;;;;;;;;;;5019478;28;20380;-74
2023/01/18 02:09:22;;;;;;;10.20;4.40;;;;;;;;;;5022371;28;20414;-73
2023/01/18 02:11:50;;;;;;;4.50;2.92;;;;;;;;;;5017040;28;20046;-72
2023/01/18 02:14:16;;;;;;;6.40;3.67;;;;;;;;;;5029463;28;20523;-72
2023/01/18 02:16:47;;;;;;;5.70;2.83;;;;;;;;;;5020747;28;20042;-73
2023/01/18 02:19:18;;;;;;;4.85;2.38;;;;;;;;;;5025607;28;20042;-72
2023/01/18 02:21:52;;;;;;;11.20;3.60;;;;;;;;;;5022803;28;20104;-72
2023/01/18 02:24:53;;;;;;;5.50;2.90;;;;;;;;;;5022566;28;20393;-72
2023/01/18 02:27:31;;;;;;;4.85;2.90;;;;;;;;;;5013142;28;20037;-72
2023/01/18 02:30:08;;;;;;;6.20;2.33;;;;;;;;;;5056958;28;20053;-73
2023/01/18 02:33:21;;;;;;;7.90;2.22;;;;;;;;;;5019857;28;20642;-72
2023/01/18 02:35:51;;;;;;;10.30;4.47;;;;;;;;;;5029868;28;20053;-72
2023/01/18 02:38:23;;;;;;;4.22;2.08;;;;;;;;;;5018338;28;20470;-72
2023/01/18 02:41:04;;;;;;;4.40;2.45;;;;;;;;;;5016752;28;20076;-72
2023/01/18 02:46:32;;;;;;;5.25;2.38;;;;;;;;;;5019414;28;20048;-72
2023/01/18 02:49:06;;;;;;;6.27;3.23;;;;;;;;;;5016701;28;20386;-72
2023/01/18 02:51:32;;;;;;;;;;;;;;;;;;5033069;28;20057;-71
2023/01/18 02:53:57;;;;;;;6.40;3.42;;;;;;;;;;5017784;28;20301;-72
2023/01/18 02:56:37;;;;;;;9.52;2.97;;;;;;;;;;5016724;28;20120;-72
2023/01/18 02:59:16;;;;;;;4.60;2.53;;;;;;;;;;5022000;28;20140;-72
2023/01/18 03:01:48;;;;;;;9.80;3.63;;;;;;;;;;5027407;28;20051;-73
2023/01/18 03:04:20;;;;;;;6.00;3.05;;;;;;;;;;5014903;28;20030;-73
2023/01/18 03:06:48;;;;;;;8.35;3.63;;;;;;;;;;5025446;28;20069;-72
2023/01/18 03:09:20;;;;;;;7.55;3.38;;;;;;;;;;5027044;28;20040;-72
2023/01/18 03:11:56;;;;;;;12.52;3.55;;;;;;;;;;5020276;28;20116;-72
2023/01/18 03:14:27;;;;;;;4.75;2.80;;;;;;;;;;5018030;28;20121;-72
2023/01/18 03:17:40;;;;;;;11.68;3.83;;;;;;;;;;5016185;28;20069;-72
2023/01/18 03:20:11;;;;;;;14.32;2.42;;;;;;;;;;4987658;28;20119;-72
2023/01/18 03:25:29;;;;;;;6.15;3.05;;;;;;;;;;5025076;28;20036;-73
2023/01/18 03:33:44;;;;;;;9.40;2.55;;;;;;;;;;5007500;28;20120;-72
2023/01/18 03:36:31;;;;;;;5.72;2.70;;;;;;;;;;5011740;28;20025;-72
2023/01/18 03:39:02;;;;;;;8.52;2.78;;;;;;;;;;5025922;28;20045;-72
2023/01/18 03:41:31;;;;;;;5.47;2.60;;;;;;;;;;5023831;28;20032;-72
2023/01/18 03:43:59;;;;;;;9.27;3.65;;;;;;;;;;5020002;28;20139;-72
2023/01/18 03:46:27;;;;;;;6.75;2.80;;;;;;;;;;5019724;28;20034;-74
2023/01/18 03:48:54;;;;;;;8.48;2.28;;;;;;;;;;5021714;28;20041;-72
2023/01/18 03:51:57;;;;;;;19.50;4.20;;;;;;;;;;5021232;28;20037;-73
2023/01/18 03:54:32;;;;;;;8.63;3.17;;;;;;;;;;5020429;28;20040;-72
2023/01/18 03:57:04;;;;;;;6.70;2.78;;;;;;;;;;5022391;28;20030;-73
2023/01/18 03:59:33;;;;;;;4.88;2.83;;;;;;;;;;5022330;28;20080;-72
2023/01/18 04:02:00;;;;;;;5.90;3.55;;;;;;;;;;5004414;28;20390;-73
2023/01/18 04:04:25;;;;;;;12.65;5.05;;;;;;;;;;5017708;28;20032;-73
2023/01/18 04:06:51;;;;;;;8.75;4.40;;;;;;;;;;5025851;28;20495;-72
2023/01/18 04:09:16;;;;;;;9.93;4.07;;;;;;;;;;5016132;28;20120;-73
2023/01/18 04:11:41;;;;;;;12.48;5.07;;;;;;;;;;5013071;28;20084;-72
2023/01/18 04:14:07;;;;;;;12.80;4.50;;;;;;;;;;5015354;28;20037;-72
2023/01/18 04:16:32;;;;;;;11.10;5.38;;;;;;;;;;5022846;28;20040;-72
2023/01/18 04:18:58;;;;;;;16.58;6.28;;;;;;;;;;5020655;28;20397;-73
2023/01/18 04:21:23;;;;;;;11.68;5.60;;;;;;;;;;5013426;28;20057;-72
2023/01/18 04:23:48;;;;;;;19.05;6.10;;;;;;;;;;5020875;28;20033;-73
2023/01/18 04:26:15;;;;;;;9.57;5.30;;;;;;;;;;5020024;28;20036;-73
2023/01/18 04:28:41;;;;;;;12.15;4.13;;;;;;;;;;5016258;28;20037;-73
2023/01/18 04:31:06;;;;;;;7.63;4.22;;;;;;;;;;5016236;28;20045;-72
2023/01/18 04:33:31;;;;;;;10.13;3.92;;;;;;;;;;5024632;28;20037;-72
2023/01/18 04:35:57;;;;;;;9.15;3.83;;;;;;;;;;5020021;28;20451;-72
2023/01/18 04:38:22;;;;;;;8.23;2.80;;;;;;;;;;5019814;28;20117;-73
2023/01/18 04:40:48;;;;;;;10.32;4.57;;;;;;;;;;5018293;28;20036;-72
2023/01/18 04:43:14;;;;;;;10.55;3.42;;;;;;;;;;5018305;28;20038;-72
2023/01/18 04:45:39;;;;;;;6.47;4.10;;;;;;;;;;5018942;28;20053;-73
2023/01/18 04:48:05;;;;;;;8.18;3.80;;;;;;;;;;5028533;28;20037;-72
2023/01/18 04:50:30;;;;;;;10.05;4.78;;;;;;;;;;5016906;28;20165;-72
2023/01/18 04:52:56;;;;;;;13.13;5.53;;;;;;;;;;5012377;28;20029;-72
2023/01/18 04:55:22;;;;;;;9.75;5.18;;;;;;;;;;5026884;28;20067;-73
2023/01/18 04:57:53;;;;;;;16.90;5.00;;;;;;;;;;5030407;28;20022;-72
2023/01/18 05:00:20;;;;;;;11.52;3.88;;;;;;;;;;5028068;28;20030;-73
2023/01/18 05:02:45;;;;;;;8.65;4.60;;;;;;;;;;5034950;28;20042;-72
2023/01/18 05:05:10;;;;;;;14.88;4.43;;;;;;;;;;5027672;28;20033;-72
2023/01/18 05:07:36;;;;;;;12.70;4.72;;;;;;;;;;5020064;28;20424;-72
2023/01/18 05:10:02;;;;;;;9.23;3.42;;;;;;;;;;5018161;28;20033;-72
2023/01/18 05:12:28;;;;;;;10.13;3.72;;;;;;;;;;5026903;28;20033;-72
2023/01/18 05:14:54;;;;;;;7.82;4.20;;;;;;;;;;5022574;28;20069;-72
2023/01/18 05:17:19;;;;;;;6.30;3.10;;;;;;;;;;5023146;28;20458;-73
2023/01/18 05:19:47;;;;;;;5.80;3.05;;;;;;;;;;5021768;28;20160;-72
2023/01/18 05:22:12;;;;;;;8.95;4.03;;;;;;;;;;5027666;28;20099;-72
2023/01/18 05:24:38;;;;;;;9.45;3.00;;;;;;;;;;5028842;28;20483;-72
2023/01/18 05:27:03;;;;;;;8.35;3.00;;;;;;;;;;5035016;28;20494;-73
2023/01/18 05:29:29;;;;;;;7.75;3.53;;;;;;;;;;5019767;28;20045;-72
2023/01/18 05:31:54;;;;;;;7.38;3.13;;;;;;;;;;5040351;28;20033;-72
2023/01/18 05:34:19;;;;;;;11.15;2.65;;;;;;;;;;5024654;28;20061;-72
2023/01/18 05:36:46;;;;;;;5.18;2.63;;;;;;;;;;5024390;28;20075;-73
2023/01/18 05:39:12;;;;;;;4.57;2.45;;;;;;;;;;5021206;28;20037;-72
2023/01/18 05:41:37;;;;;;;5.95;3.20;;;;;;;;;;5032538;28;20040;-73
2023/01/18 05:44:03;;;;;;;4.82;2.53;;;;;;;;;;5016460;28;20132;-72
2023/01/18 05:46:28;;;;;;;6.00;2.83;;;;;;;;;;5022969;28;20025;-73
2023/01/18 05:48:57;;;;;;;5.65;2.58;;;;;;;;;;5017440;28;20120;-72
2023/01/18 05:51:23;;;;;;;6.03;3.03;;;;;;;;;;5022792;28;20125;-73
2023/01/18 05:53:49;;;;;;;8.48;3.08;;;;;;;;;;5015952;28;20116;-72
2023/01/18 05:56:14;;;;;;;7.03;2.58;;;;;;;;;;5019277;28;20037;-72
2023/01/18 05:58:40;;;;;;;6.97;2.72;;;;;;;;;;5022731;28;20037;-72
2023/01/18 06:01:07;;;;;;;6.28;2.38;;;;;;;;;;5026631;28;20030;-72
2023/01/18 06:03:33;;;;;;;5.18;3.17;;;;;;;;;;5028198;28;20045;-74
2023/01/18 06:05:58;;;;;;;6.20;2.85;;;;;;;;;;5019324;28;20397;-73
2023/01/18 06:08:24;;;;;;;10.35;2.90;;;;;;;;;;5019874;28;20109;-73
2023/01/18 06:10:57;;;;;;;6.57;2.53;;;;;;;;;;5016935;28;20500;-72
2023/01/18 06:13:23;;;;;;;4.20;2.00;;;;;;;;;;5017095;28;20133;-73
2023/01/18 06:15:49;;;;;;;3.22;1.77;;;;;;;;;;5027151;28;20083;-72
2023/01/18 06:18:14;;;;;;;9.35;2.50;;;;;;;;;;5021920;28;20026;-72
2023/01/18 06:20:39;;;;;;;3.95;1.80;;;;;;;;;;5011814;28;20042;-73
2023/01/18 06:23:05;;;;;;;10.13;2.65;;;;;;;;;;5023646;28;20033;-73
2023/01/18 06:25:30;;;;;;;7.95;2.55;;;;;;;;;;5031509;28;20037;-72
2023/01/18 06:27:55;;;;;;;2.90;1.52;;;;;;;;;;5019362;28;20049;-72
2023/01/18 06:30:21;;;;;;;6.45;2.38;;;;;;;;;;5027024;28;20064;-74
2023/01/18 06:32:49;;;;;;;8.38;2.05;;;;;;;;;;5027239;28;20494;-73
2023/01/18 06:35:15;;;;;;;7.22;1.95;;;;;;;;;;5029804;28;20033;-72
2023/01/18 06:37:40;;;;;;;2.80;1.33;;;;;;;;;;5021463;28;20026;-73
2023/01/18 06:40:06;;;;;;;5.25;2.35;;;;;;;;;;5025337;28;20104;-73
2023/01/18 06:42:32;;;;;;;4.03;2.05;;;;;;;;;;5023049;28;20045;-72
2023/01/18 06:44:58;;;;;;;11.25;2.05;;;;;;;;;;5018506;28;20076;-73
2023/01/18 06:47:23;;;;;;;4.60;1.80;;;;;;;;;;5020865;28;20026;-73
2023/01/18 06:49:49;;;;;;;3.35;1.48;;;;;;;;;;5026222;28;20096;-72
2023/01/18 06:52:15;;;;;;;5.32;2.17;;;;;;;;;;5019132;28;20029;-72
2023/01/18 06:54:40;;;;;;;14.93;2.67;;;;;;;;;;5017361;28;20459;-72
2023/01/18 06:57:05;;;;;;;10.55;6.20;;;;;;;;;;5024411;28;20088;-72
2023/01/18 06:59:31;;;;;;;16.30;5.50;;;;;;;;;;5023676;28;20064;-72
2023/01/18 07:01:56;;;;;;;12.68;4.47;;;;;;;;;;5024222;28;20084;-73
2023/01/18 07:04:22;;;;;;;6.63;3.38;;;;;;;;;;5015781;28;20050;-73
2023/01/18 07:06:47;;;;;;;4.22;2.05;;;;;;;;;;5024400;28;20029;-72
2023/01/18 07:09:13;;;;;;;7.82;2.53;;;;;;;;;;5028524;28;20037;-72
2023/01/18 07:11:42;;;;;;;6.00;1.90;;;;;;;;;;5026492;28;20473;-71
2023/01/18 07:14:10;;;;;;;7.97;2.60;;;;;;;;;;5015010;28;20087;-72
2023/01/18 07:16:36;;;;;;;12.05;2.85;;;;;;;;;;5026773;28;20037;-72
2023/01/18 07:19:02;;;;;;;7.03;2.72;;;;;;;;;;5027299;28;20413;-73
2023/01/18 07:21:28;;;;;;;4.45;2.25;;;;;;;;;;5028102;28;20108;-72
2023/01/18 07:23:56;;;;;;;3.97;1.90;;;;;;;;;;5024929;28;20497;-71
2023/01/18 07:26:21;;;;;;;11.38;6.20;;;;;;;;;;5035560;28;20073;-72
2023/01/18 07:28:48;;;;;;;12.15;3.40;;;;;;;;;;5022858;28;20107;-72
2023/01/18 07:31:14;;;;;;;12.10;3.00;;;;;;;;;;5021312;28;20026;-71
2023/01/18 07:33:39;;;;;;;12.32;2.28;;;;;;;;;;5028355;28;20503;-72
2023/01/18 07:36:06;;;;;;;4.18;2.42;;;;;;;;;;5023755;28;20100;-73
2023/01/18 07:38:32;;;;;;;4.82;1.70;;;;;;;;;;5019067;28;20394;-71
2023/01/18 07:41:02;;;;;;;6.57;2.90;;;;;;;;;;5021967;28;20041;-72
2023/01/18 07:43:31;;;;;;;5.80;3.15;;;;;;;;;;5022053;28;20026;-72
2023/01/18 07:45:57;;;;;;;7.43;3.55;;;;;;;;;;5023364;28;20045;-71
2023/01/18 07:48:23;;;;;;;9.82;2.88;;;;;;;;;;5022415;28;20064;-73
2023/01/18 07:50:54;;;;;;;2.50;1.30;;;;;;;;;;5020604;28;20050;-72
2023/01/18 07:53:20;;;;;;;6.00;2.47;;;;;;;;;;5015049;28;20121;-72
2023/01/18 07:55:45;;;;;;;8.60;3.40;;;;;;;;;;5027797;28;20049;-72
2023/01/18 07:58:11;;;;;;;6.25;2.25;;;;;;;;;;5017948;28;20395;-72
2023/01/18 08:00:36;;;;;;;7.15;2.83;;;;;;;;;;5023270;28;20083;-72
2023/01/18 08:03:01;;;;;;;11.27;2.67;;;;;;;;;;5022306;28;20068;-73
2023/01/18 08:05:28;;;;;;;8.55;2.20;;;;;;;;;;5015834;28;20041;-74
2023/01/18 08:07:54;;;;;;;6.95;1.85;;;;;;;;;;5019648;28;20034;-73
2023/01/18 08:10:20;;;;;;;2.53;1.40;;;;;;;;;;5030683;28;20106;-72
2023/01/18 08:12:45;;;;;;;3.08;1.52;;;;;;;;;;5043836;28;20481;-72
2023/01/18 08:15:11;;;;;;;7.18;2.00;;;;;;;;;;5018962;28;20132;-72
2023/01/18 08:17:37;;;;;;;3.78;1.77;;;;;;;;;;5023791;28;20029;-72
2023/01/18 08:20:04;;;;;;;4.90;1.50;;;;;;;;;;5016397;28;20023;-73
2023/01/18 08:22:30;;;;;;;4.07;1.92;;;;;;;;;;5030321;28;20049;-72
2023/01/18 08:24:56;;;;;;;6.97;1.80;;;;;;;;;;5021386;28;20045;-72
2023/01/18 08:27:21;;;;;;;3.55;1.50;;;;;;;;;;5016791;28;20030;-73
2023/01/18 08:29:47;;;;;;;2.60;1.27;;;;;;;;;;5032619;28;20469;-72
2023/01/18 08:32:12;;;;;;;3.33;1.30;;;;;;;;;;5025429;28;20481;-73
2023/01/18 08:34:38;;;;;;;2.75;1.50;;;;;;;;;;5015190;28;20423;-72
2023/01/18 08:37:03;;;;;;;4.30;1.67;;;;;;;;;;5017810;28;20068;-73
2023/01/18 08:39:29;;;;;;;3.03;1.20;;;;;;;;;;5019372;28;20065;-72
2023/01/18 08:41:54;;;;;;;3.15;1.25;;;;;;;;;;5025038;28;20033;-72
2023/01/18 08:44:19;;;;;;;4.90;1.45;;;;;;;;;;5021003;28;20072;-72
2023/01/18 08:46:45;;;;;;;9.93;1.45;;;;;;;;;;5019951;28;20045;-72
2023/01/18 08:49:10;;;;;;;3.97;1.38;;;;;;;;;;5024253;28;20042;-72
2023/01/18 08:51:36;;;;;;;9.07;1.83;;;;;;;;;;5026407;28;20104;-72
2023/01/18 08:54:01;;;;;;;3.08;1.20;;;;;;;;;;5002133;28;21535;-72
2023/01/18 08:56:27;;;;;;;7.65;1.70;;;;;;;;;;5014312;28;20036;-72
2023/01/18 08:58:53;;;;;;;8.07;1.55;;;;;;;;;;5014183;28;20053;-72
2023/01/18 09:01:18;;;;;;;3.03;1.50;;;;;;;;;;5026393;28;20108;-73
2023/01/18 09:03:46;;;;;;;1.85;1.05;;;;;;;;;;5019393;28;20066;-72
2023/01/18 09:06:11;;;;;;;3.17;1.63;;;;;;;;;;5020233;28;20044;-73
2023/01/18 09:08:36;;;;;;;6.22;1.48;;;;;;;;;;5024642;28;20401;-73
2023/01/18 09:11:04;;;;;;;3.60;1.20;;;;;;;;;;5021303;28;20038;-73
2023/01/18 09:13:30;;;;;;;4.97;1.15;;;;;;;;;;5018707;28;20049;-73
2023/01/18 09:16:04;;;;;;;8.40;1.63;;;;;;;;;;5027610;28;20067;-72
2023/01/18 09:18:30;;;;;;;7.50;1.58;;;;;;;;;;5022111;28;20185;-73
2023/01/18 09:20:56;;;;;;;5.03;1.40;;;;;;;;;;4986683;28;20053;-76
2023/01/18 09:23:22;;;;;;;2.40;1.17;;;;;;;;;;5008097;28;20041;-73
2023/01/18 09:25:48;;;;;;;3.85;1.42;;;;;;;;;;5013208;28;20041;-72
2023/01/18 09:28:15;;;;;;;3.67;1.27;;;;;;;;;;5016843;28;20042;-73
2023/01/18 09:30:41;;;;;;;5.70;1.40;;;;;;;;;;5017819;28;20060;-73
2023/01/18 09:33:07;;;;;;;2.95;1.45;;;;;;;;;;5018019;28;20088;-74
2023/01/18 09:35:32;;;;;;;7.35;1.80;;;;;;;;;;5026039;28;20045;-72
2023/01/18 09:37:58;;;;;;;5.95;1.80;;;;;;;;;;5026169;28;20030;-73
2023/01/18 09:40:30;;;;;;;9.48;3.20;;;;;;;;;;5025512;28;20049;-73
2023/01/18 09:42:55;;;;;;;6.82;3.60;;;;;;;;;;5024683;28;20056;-72
2023/01/18 09:45:47;;;;;;;9.13;3.55;;;;;;;;;;5028072;28;20033;-74
2023/01/18 09:48:39;;;;;;;16.10;7.43;;;;;;;;;;5050191;28;20480;-73
2023/01/18 09:51:26;;;;;;;24.33;11.68;;;;;;;;;;5056626;28;20104;-76
2023/01/18 09:54:10;;;;;;;29.42;14.90;;;;;;;;;;5043069;28;20034;-73
2023/01/18 09:57:07;;;;;;;35.05;18.13;;;;;;;;;;5019551;28;20037;-73
2023/01/18 09:59:42;;;;;;;30.38;15.75;;;;;;;;;;5018467;28;20516;-73
2023/01/18 10:02:22;;;;;;;34.28;19.35;;;;;;;;;;5022293;28;20424;-75
2023/01/18 10:04:52;;;;;;;41.92;21.55;;;;;;;;;;5041363;28;20095;-73
2023/01/18 10:07:18;;;;;;;48.35;23.05;;;;;;;;;;5024205;28;20084;-73
2023/01/18 10:09:57;;;;;;;41.13;21.27;;;;;;;;;;5015113;28;20121;-77
2023/01/18 10:12:29;;;;;;;39.10;20.33;;;;;;;;;;5000898;28;20121;-73
2023/01/18 10:15:09;;;;;;;27.95;14.18;;;;;;;;;;5017293;28;20485;-73
2023/01/18 10:17:41;;;;;;;45.85;21.55;;;;;;;;;;5012795;28;20041;-72
2023/01/18 10:20:14;;;;;;;31.20;14.20;;;;;;;;;;5008166;28;20239;-73
2023/01/18 10:22:56;;;;;;;16.95;10.27;;;;;;;;;;5012083;28;20049;-75
2023/01/18 10:25:43;;;;;;;31.90;18.08;;;;;;;;;;5012908;28;20072;-73
2023/01/18 10:28:31;;;;;;;24.73;15.48;;;;;;;;;;5014835;28;20541;-76
2023/01/18 10:31:14;;;;;;;24.38;10.35;;;;;;;;;;5014596;28;20172;-73
2023/01/18 10:33:41;;;;;;;30.02;14.25;;;;;;;;;;5021918;28;20037;-73
2023/01/18 10:36:32;;;;;;;23.08;12.88;;;;;;;;;;5022384;28;20030;-72
2023/01/18 10:39:01;;;;;;;20.02;12.13;;;;;;;;;;5015979;28;20041;-73
2023/01/18 10:41:32;;;;;;;13.00;5.38;;;;;;;;;;5018555;28;20046;-76
2023/01/18 10:43:57;;;;;;;14.48;5.25;;;;;;;;;;5023419;28;20041;-77
2023/01/18 10:46:22;;;;;;;5.00;2.78;;;;;;;;;;5016432;28;20048;-74
2023/01/18 10:48:52;;;;;;;7.60;3.25;;;;;;;;;;5015843;28;20121;-73
2023/01/18 10:51:31;;;;;;;10.30;3.95;;;;;;;;;;5015203;28;20073;-73
2023/01/18 10:53:57;;;;;;;7.07;3.97;;;;;;;;;;5016454;28;20041;-73
2023/01/18 10:56:25;;;;;;;6.95;2.85;;;;;;;;;;5015914;28;20375;-73
2023/01/18 10:58:50;;;;;;;5.75;2.78;;;;;;;;;;5032189;28;20504;-72
2023/01/18 11:01:29;;;;;;;4.47;1.77;;;;;;;;;;5014339;28;20021;-72
2023/01/18 11:04:06;;;;;;;3.40;1.08;;;;;;;;;;5022129;28;20393;-73
2023/01/18 11:06:59;;;;;;;2.40;1.20;;;;;;;;;;5020921;28;20033;-73
2023/01/18 11:09:48;;;;;;;2.75;1.40;;;;;;;;;;5003226;28;20041;-77
2023/01/18 11:12:40;;;;;;;4.63;1.35;;;;;;;;;;5018624;28;20056;-75
2023/01/18 11:15:14;;;;;;;4.28;1.10;;;;;;;;;;5010657;28;20136;-73
2023/01/18 11:17:59;;;;;;;2.35;1.08;;;;;;;;;;5021832;28;20041;-73
2023/01/18 11:20:36;;;;;;;5.28;1.85;;;;;;;;;;5011661;28;20040;-72
2023/01/18 11:23:13;;;;;;;4.00;1.30;;;;;;;;;;5014930;28;20045;-72
2023/01/18 11:25:44;;;;;;;4.75;1.60;;;;;;;;;;5021926;28;20087;-73
2023/01/18 11:28:19;;;;;;;7.10;2.58;;;;;;;;;;5019469;28;20398;-73
2023/01/18 11:30:58;;;;;;;5.70;1.88;;;;;;;;;;5013301;28;20557;-75
2023/01/18 11:33:25;;;;;;;7.25;2.17;;;;;;;;;;5016960;28;20045;-72
2023/01/18 11:35:56;;;;;;;7.32;2.50;;;;;;;;;;5017124;28;20042;-73
2023/01/18 11:38:26;;;;;;;7.30;3.45;;;;;;;;;;5016411;28;20033;-72
2023/01/18 11:41:04;;;;;;;5.13;1.95;;;;;;;;;;5037867;28;20132;-73
2023/01/18 11:43:30;;;;;;;4.78;1.77;;;;;;;;;;5006612;28;20045;-77
2023/01/18 11:46:48;;;;;;;5.63;2.75;;;;;;;;;;5014067;28;20042;-73
2023/01/18 11:49:41;;;;;;;3.70;1.70;;;;;;;;;;4997068;28;20054;-72
2023/01/18 11:52:26;;;;;;;2.83;1.13;;;;;;;;;;5009701;28;20092;-73
2023/01/18 11:54:55;;;;;;;2.38;0.80;;;;;;;;;;5019259;28;20052;-73
2023/01/18 11:57:20;;;;;;;5.72;2.15;;;;;;;;;;5004802;28;20042;-73
2023/01/18 11:59:47;;;;;;;1.85;0.70;;;;;;;;;;5020433;28;20044;-72
2023/01/18 12:02:34;;;;;;;3.47;1.42;;;;;;;;;;5011214;28;20029;-73
2023/01/18 12:05:12;;;;;;;8.20;1.10;;;;;;;;;;5019237;28;20437;-72
2023/01/18 12:07:54;;;;;;;1.33;0.63;;;;;;;;;;5005390;28;20095;-73
2023/01/18 12:10:20;;;;;;;5.25;1.15;;;;;;;;;;5015967;28;20041;-72
2023/01/18 12:12:55;;;;;;;3.92;1.77;;;;;;;;;;5016447;28;20056;-77
2023/01/18 12:15:23;;;;;;;3.35;1.05;;;;;;;;;;5020153;28;20440;-73
2023/01/18 12:18:11;;;;;;;6.25;2.65;;;;;;;;;;5018474;28;20052;-76
2023/01/18 12:20:48;;;;;;;6.03;1.35;;;;;;;;;;5004124;28;20462;-74
2023/01/18 12:23:43;;;;;;;2.50;0.80;;;;;;;;;;5014083;28;20628;-72
2023/01/18 12:26:24;;;;;;;2.78;0.77;;;;;;;;;;5022765;28;20052;-73
2023/01/18 12:29:13;;;;;;;4.53;1.10;;;;;;;;;;5011441;28;20038;-75
2023/01/18 12:31:47;;;;;;;2.65;0.95;;;;;;;;;;5007617;28;20046;-74
2023/01/18 12:34:17;;;;;;;2.95;0.90;;;;;;;;;;5015608;28;20091;-73
2023/01/18 12:36:55;;;;;;;3.35;0.82;;;;;;;;;;5020220;28;20095;-73
2023/01/18 12:39:57;;;;;;;4.60;1.17;;;;;;;;;;5012807;28;20038;-74
2023/01/18 12:42:44;;;;;;;10.45;3.65;;;;;;;;;;5014609;28;20045;-74
2023/01/18 12:45:34;;;;;;;10.23;1.30;;;;;;;;;;5009870;28;20462;-73
2023/01/18 12:48:20;;;;;;;1.90;0.55;;;;;;;;;;5010727;28;20068;-73
2023/01/18 12:50:49;;;;;;;7.65;1.00;;;;;;;;;;5009424;28;20053;-74
2023/01/18 12:53:39;;;;;;;4.45;1.55;;;;;;;;;;5016818;28;20038;-73
2023/01/18 12:56:15;;;;;;;5.72;0.85;;;;;;;;;;5017946;28;20167;-73
2023/01/18 12:58:42;;;;;;;1.95;0.70;;;;;;;;;;5014846;28;20034;-73
2023/01/18 13:01:13;;;;;;;0.68;0.50;;;;;;;;;;5019993;28;20041;-72
2023/01/18 13:03:41;;;;;;;1.55;0.60;;;;;;;;;;5024163;28;20493;-72
2023/01/18 13:06:08;;;;;;;4.68;1.30;;;;;;;;;;5022115;28;20065;-72
2023/01/18 13:08:46;;;;;;;2.47;0.73;;;;;;;;;;5029873;28;20061;-73
2023/01/18 13:11:18;;;;;;;1.67;0.75;;;;;;;;;;4998148;28;20034;-73
2023/01/18 13:13:44;;;;;;;3.83;1.55;;;;;;;;;;5016738;28;20494;-73
2023/01/18 13:16:10;;;;;;;2.97;1.00;;;;;;;;;;5025816;28;20029;-73
2023/01/18 13:18:45;;;;;;;3.88;1.00;;;;;;;;;;5025094;28;20045;-75
2023/01/18 13:21:24;;;;;;;3.88;1.05;;;;;;;;;;5010035;28;20042;-72
2023/01/18 13:24:15;;;;;;;3.78;1.33;;;;;;;;;;5017131;28;20056;-72
2023/01/18 13:26:41;;;;;;;1.40;0.60;;;;;;;;;;5022591;28;20030;-72
2023/01/18 13:29:28;;;;;;;1.90;0.60;;;;;;;;;;5029488;28;20069;-74
2023/01/18 13:31:54;;;;;;;2.35;0.68;;;;;;;;;;5014661;28;20021;-74
2023/01/18 13:34:27;;;;;;;3.65;0.80;;;;;;;;;;5023668;28;20049;-73
2023/01/18 13:36:53;;;;;;;2.38;0.70;;;;;;;;;;5022164;28;20068;-74
2023/01/18 13:39:18;;;;;;;4.18;0.70;;;;;;;;;;5022097;28;20120;-72
2023/01/18 13:42:02;;;;;;;7.10;0.85;;;;;;;;;;5028678;28;20060;-73
2023/01/18 13:44:35;;;;;;;2.17;0.70;;;;;;;;;;5025951;28;20030;-73
2023/01/18 13:47:00;;;;;;;4.68;0.40;;;;;;;;;;5026412;28;20453;-76
2023/01/18 13:49:35;;;;;;;4.28;0.68;;;;;;;;;;5022692;28;20049;-72
2023/01/18 13:52:03;;;;;;;5.95;0.82;;;;;;;;;;5012972;28;20394;-73
2023/01/18 13:54:28;;;;;;;3.97;0.50;;;;;;;;;;5006839;28;20041;-75
2023/01/18 13:57:00;;;;;;;2.05;0.70;;;;;;;;;;4990161;28;20029;-75
2023/01/18 13:59:28;;;;;;;2.85;0.85;;;;;;;;;;5012103;28;20042;-74
2023/01/18 14:02:07;;;;;;;2.90;0.70;;;;;;;;;;5015361;28;20530;-74
2023/01/18 14:04:34;;;;;;;1.95;0.57;;;;;;;;;;5008205;28;20129;-73
2023/01/18 14:07:04;;;;;;;3.53;0.60;;;;;;;;;;5009472;28;20042;-73
2023/01/18 14:09:37;;;;;;;2.85;0.75;;;;;;;;;;5013427;28;20053;-73
2023/01/18 14:12:04;;;;;;;4.60;0.68;;;;;;;;;;5023374;28;20034;-73
2023/01/18 14:14:54;;;;;;;1.92;0.70;;;;;;;;;;5013628;28;20048;-75
2023/01/18 14:17:20;;;;;;;9.15;0.80;;;;;;;;;;5007933;28;20054;-73
2023/01/18 14:19:45;;;;;;;6.05;1.00;;;;;;;;;;5011116;28;20712;-72
2023/01/18 14:22:24;;;;;;;4.60;0.80;;;;;;;;;;5029065;28;20026;-73
2023/01/18 14:25:08;;;;;;;3.38;0.90;;;;;;;;;;5015726;28;20068;-73
2023/01/18 14:27:42;;;;;;;3.47;0.70;;;;;;;;;;5025737;28;20061;-73
2023/01/18 14:30:12;;;;;;;7.95;0.70;;;;;;;;;;5010182;28;20041;-77
2023/01/18 14:32:43;;;;;;;1.13;0.70;;;;;;;;;;5013118;28;20045;-72
2023/01/18 14:35:19;;;;;;;7.35;1.13;;;;;;;;;;5024036;28;20052;-73
2023/01/18 14:37:45;;;;;;;2.28;0.80;;;;;;;;;;5025404;28;20041;-72
2023/01/18 14:40:17;;;;;;;5.03;1.10;;;;;;;;;;5021637;28;20041;-73
2023/01/18 14:42:53;;;;;;;4.18;1.10;;;;;;;;;;5024206;28;20037;-73
2023/01/18 14:45:28;;;;;;;3.22;1.17;;;;;;;;;;5021859;28;20037;-72
2023/01/18 14:47:59;;;;;;;6.65;1.02;;;;;;;;;;5027049;28;20041;-73
2023/01/18 14:50:26;;;;;;;4.95;1.65;;;;;;;;;;5019769;28;20405;-73
2023/01/18 14:52:52;;;;;;;9.00;1.52;;;;;;;;;;5021232;28;20034;-77
2023/01/18 14:55:28;;;;;;;7.65;1.83;;;;;;;;;;5022303;28;20025;-73
2023/01/18 14:58:09;;;;;;;4.00;1.10;;;;;;;;;;5016013;28;20044;-72
2023/01/18 15:00:42;;;;;;;5.13;1.45;;;;;;;;;;5012466;28;20079;-73
2023/01/18 15:03:21;;;;;;;5.45;1.40;;;;;;;;;;5012492;28;20045;-73
2023/01/18 15:05:49;;;;;;;7.40;1.90;;;;;;;;;;5043987;28;20053;-72
2023/01/18 15:08:15;;;;;;;6.78;1.25;;;;;;;;;;5016855;28;20057;-74
2023/01/18 15:10:42;;;;;;;7.47;1.50;;;;;;;;;;5019156;28;20460;-73
2023/01/18 15:13:07;;;;;;;3.88;1.15;;;;;;;;;;5020790;28;20042;-72
2023/01/18 15:15:41;;;;;;;7.90;1.80;;;;;;;;;;5011213;28;20064;-73
2023/01/18 15:18:09;;;;;;;8.23;1.40;;;;;;;;;;5011314;28;20030;-73
2023/01/18 15:20:50;;;;;;;5.57;1.00;;;;;;;;;;5023123;28;20045;-73
2023/01/18 15:23:15;;;;;;;5.53;1.40;;;;;;;;;;5012360;28;20106;-73
2023/01/18 15:25:42;;;;;;;6.10;1.33;;;;;;;;;;5016077;28;20485;-73